Gadsden, AZ

1:08 PM MST on March 03, 2015 (GMT -0700)
YCWUA International Boundary Pumping Plant | Change Station
CLOSE
Current Station
Personal Weather Station
Location: San Luis, AZ
Elevation: 79 ft
Nearby Weather Stations

Elev 79 ft 32.49 °N, 114.79 °W | Updated 1 minute ago

Clear
Clear
64.6 °F
Feels Like 64.6 °F
N
2.0
Wind Variable Wind from West
Gusts 7.0 mph

Today
High -- | Low -- °F
--% Chance of Precip.
Yesterday
High -- | Low -- °F
Precip. -- in
7:04 AM 6:37 PM
Waxing Gibbous, 97% visible
Pressure 29.91 in
Visibility 10.0 miles
Clouds Scattered Clouds 3000 ft
Scattered Clouds 18000 ft
Mostly Cloudy 22000 ft
Dew Point 43 °F
Humidity 46%
Rainfall 0.00 in
Snow Depth Not available.
UV 4 out of 12
Pollen 10.20 out of 12
Air Quality Not available.
Flu Activity Not available.
METAR KNYL 031957Z 27006KT 10SM SCT030 SCT180 BKN220 18/06 A2991 RMK AO2 SLP128 T01830056

More Conditions Fewer Conditions

Pressure 29.91 in
Visibility 10.0 miles
Clouds Scattered Clouds 3000 ft
Scattered Clouds 18000 ft
Mostly Cloudy 22000 ft
Dew Point 43 °F
Humidity 46%
Rainfall 0.00 in
Snow Depth Not available.
UV 4 out of 12
Pollen 10.20 out of 12
Air Quality Not available.
Flu Activity Not available.
METAR KNYL 031957Z 27006KT 10SM SCT030 SCT180 BKN220 18/06 A2991 RMK AO2 SLP128 T01830056

More Conditions Fewer Conditions

10-Day Weather Forecast

Almanac

Astronomy

Mar. 03, 2015 Rise Set
Actual Time
Civil Twilight
Nautical Twilight
Astronomical Twilight
Moon
Length of Visible Light
Length of Day
Tomorrow will be .
, % of the Moon is Illuminated

Today's Extremes

State Highs State Lows

Community

WunderPhotos

Upload Photos

1,802,226 photos uploaded!

WunderBlogs® & News

Nearby

Air Quality

  Air Quality AQ Index Pollutant
Not available.

Snow Depth

Station Depth Elevation

Earthquake Activity

City Distance Mag. Time & Date
Minimum magnitude displayed is 2.5.

Coastal Water Temperatures

Place Temperature

Nearby Weather Stations